| time (UTC) | temp C | wind direction | speed KPH | gust KPH | rain 1hr cm | rain 24hr cm | rain mn cm | humidity % | barometer mb |
| 20260507085307 | 12 | 45 | 0.0 | 0.0 | 0.00 | 0.00 | 0.00 | 93 | 1013.3 |
| 20260507084805 | 12 | 13 | 0.0 | 1.6 | 0.00 | 0.00 | 0.00 | 93 | 1013.3 |
| 20260507084301 | 12 | 37 | 1.6 | 1.6 | 0.00 | 0.00 | 0.00 | 92 | 1013.3 |
| 20260507083758 | 12 | 29 | 3.2 | 4.8 | 0.00 | 0.00 | 0.00 | 93 | 1013.3 |
| 20260507083255 | 12 | 69 | 0.0 | 0.0 | 0.00 | 0.00 | 0.00 | 93 | 1013.3 |
| 20260507082751 | 12 | 4 | 1.6 | 3.2 | 0.00 | 0.00 | 0.00 | 93 | 1013.3 |
| 20260507082247 | 12 | 65 | 0.0 | 1.6 | 0.00 | 0.00 | 0.00 | 93 | 1013.3 |
| 20260507081744 | 12 | 62 | 0.0 | 1.6 | 0.00 | 0.00 | 0.00 | 93 | 1013.3 |
| 20260507081240 | 12 | 23 | 1.6 | 3.2 | 0.00 | 0.00 | 0.00 | 93 | 1013.3 |
| 20260507080736 | 12 | 34 | 4.8 | 4.8 | 0.00 | 0.00 | 0.00 | 93 | 1013.3 |
| 20260507080233 | 12 | 44 | 6.4 | 8.0 | 0.00 | 0.00 | 0.00 | 92 | 1013.3 |
| 20260507075728 | 12 | 58 | 4.8 | 4.8 | 0.00 | 0.00 | 0.00 | 92 | 1013.3 |
| 20260507075225 | 12 | 36 | 3.2 | 4.8 | 0.00 | 0.00 | 0.00 | 92 | 1013.3 |
| 20260507074721 | 12 | 30 | 4.8 | 4.8 | 0.00 | 0.00 | 0.00 | 93 | 1013.3 |
| 20260507074220 | 12 | 48 | 3.2 | 4.8 | 0.00 | 0.00 | 0.00 | 93 | 1013.3 |
| 20260507073716 | 12 | 38 | 4.8 | 4.8 | 0.00 | 0.00 | 0.00 | 93 | 1013.3 |
| 20260507073212 | 12 | 33 | 3.2 | 3.2 | 0.00 | 0.00 | 0.00 | 92 | 1013.3 |
| 20260507072710 | 12 | 24 | 1.6 | 3.2 | 0.00 | 0.00 | 0.00 | 93 | 1013.6 |
| 20260507072207 | 12 | 28 | 3.2 | 3.2 | 0.00 | 0.00 | 0.00 | 93 | 1013.3 |
| 20260507071705 | 12 | 31 | 3.2 | 3.2 | 0.00 | 0.00 | 0.00 | 94 | 1013.6 |
| 20260507071200 | 12 | 31 | 3.2 | 3.2 | 0.00 | 0.00 | 0.00 | 93 | 1013.3 |
| 20260507070659 | 12 | 26 | 3.2 | 4.8 | 0.00 | 0.00 | 0.00 | 92 | 1013.6 |
| 20260507070155 | 12 | 39 | 1.6 | 1.6 | 0.00 | 0.00 | 0.00 | 92 | 1013.6 |
| 20260507065651 | 12 | 49 | 1.6 | 3.2 | 0.00 | 0.00 | 0.00 | 93 | 1013.6 |
| 20260507065148 | 12 | 40 | 3.2 | 3.2 | 0.00 | 0.00 | 0.00 | 93 | 1013.6 |
| 20260507064645 | 12 | 43 | 3.2 | 3.2 | 0.00 | 0.00 | 0.00 | 93 | 1013.3 |
| 20260507064144 | 12 | 31 | 1.6 | 3.2 | 0.00 | 0.00 | 0.00 | 92 | 1013.6 |
| 20260507063641 | 12 | 21 | 0.0 | 0.0 | 0.00 | 0.00 | 0.00 | 93 | 1013.6 |
| 20260507063138 | 12 | 15 | 0.0 | 0.0 | 0.00 | 0.00 | 0.00 | 93 | 1013.6 |
| 20260507062635 | 12 | 1 | 0.0 | 0.0 | 0.00 | 0.00 | 0.00 | 93 | 1013.6 |
| 20260507062133 | 12 | 1 | 0.0 | 0.0 | 0.00 | 0.00 | 0.00 | 93 | 1013.6 |
| 20260507061630 | 12 | 1 | 0.0 | 0.0 | 0.00 | 0.00 | 0.00 | 93 | 1013.6 |
| 20260507061128 | 12 | 0 | 0.0 | 0.0 | 0.00 | 0.00 | 0.00 | 93 | 1013.6 |
| 20260507060626 | 12 | 0 | 0.0 | 0.0 | 0.00 | 0.00 | 0.00 | 93 | 1013.6 |
| 20260507060122 | 12 | 24 | 0.0 | 0.0 | 0.00 | 0.00 | 0.00 | 93 | 1013.6 |
| 20260507055617 | 12 | 24 | 0.0 | 0.0 | 0.00 | 0.00 | 0.00 | 93 | 1013.6 |
| 20260507055114 | 12 | 36 | 3.2 | 3.2 | 0.00 | 0.00 | 0.00 | 93 | 1013.6 |
| 20260507054610 | 12 | 30 | 1.6 | 1.6 | 0.00 | 0.00 | 0.00 | 93 | 1013.6 |
| 20260507054107 | 13 | 28 | 1.6 | 1.6 | 0.00 | 0.00 | 0.00 | 94 | 1013.6 |
| 20260507053605 | 13 | 29 | 1.6 | 3.2 | 0.00 | 0.00 | 0.00 | 93 | 1013.6 |
| 20260507053104 | 13 | 5 | 1.6 | 3.2 | 0.00 | 0.00 | 0.00 | 93 | 1013.6 |
| 20260507052601 | 13 | 32 | 4.8 | 4.8 | 0.00 | 0.00 | 0.00 | 94 | 1013.6 |
| 20260507052057 | 13 | 18 | 1.6 | 1.6 | 0.00 | 0.00 | 0.00 | 94 | 1013.6 |
| 20260507051555 | 13 | 17 | 0.0 | 0.0 | 0.00 | 0.00 | 0.00 | 96 | 1013.6 |
| 20260507051052 | 13 | 17 | 0.0 | 0.0 | 0.00 | 0.00 | 0.00 | 97 | 1013.6 |
| 20260507050549 | 13 | 17 | 0.0 | 0.0 | 0.00 | 0.00 | 0.00 | 97 | 1013.6 |
| 20260507050045 | 13 | 17 | 0.0 | 0.0 | 0.00 | 0.00 | 0.00 | 96 | 1013.6 |
| 20260507045541 | 13 | 27 | 1.6 | 1.6 | 0.00 | 0.00 | 0.00 | 96 | 1013.3 |
| 20260507045038 | 13 | 23 | 0.0 | 0.0 | 0.00 | 0.00 | 0.00 | 96 | 1013.3 |
| 20260507044535 | 13 | 28 | 1.6 | 3.2 | 0.00 | 0.00 | 0.00 | 96 | 1013.3 |
| 20260507044032 | 13 | 23 | 0.0 | 1.6 | 0.00 | 0.00 | 0.00 | 95 | 1013.3 |
| 20260507043528 | 13 | 32 | 3.2 | 3.2 | 0.00 | 0.00 | 0.00 | 95 | 1013.3 |
| 20260507043026 | 13 | 32 | 0.0 | 1.6 | 0.00 | 0.00 | 0.00 | 95 | 1013.6 |
| 20260507042521 | 14 | 24 | 0.0 | 0.0 | 0.00 | 0.00 | 0.00 | 95 | 1013.6 |
| 20260507042017 | 14 | 28 | 0.0 | 0.0 | 0.00 | 0.00 | 0.00 | 95 | 1013.3 |
| 20260507041514 | 14 | 19 | 0.0 | 1.6 | 0.00 | 0.00 | 0.00 | 94 | 1013.3 |
| 20260507041011 | 14 | 18 | 0.0 | 0.0 | 0.00 | 0.00 | 0.00 | 94 | 1013.3 |
| 20260507040507 | 15 | 319 | 0.0 | 0.0 | 0.00 | 0.00 | 0.00 | 94 | 1013.3 |
| 20260507040003 | 15 | 319 | 0.0 | 0.0 | 0.00 | 0.00 | 0.00 | 93 | 1013.3 |
| 20260507035500 | 15 | 319 | 0.0 | 0.0 | 0.00 | 0.00 | 0.00 | 93 | 1013.3 |
| 20260507034956 | 15 | 319 | 0.0 | 0.0 | 0.00 | 0.00 | 0.00 | 93 | 1013.3 |
| 20260507034453 | 15 | 319 | 0.0 | 0.0 | 0.00 | 0.00 | 0.00 | 93 | 1013.3 |
| 20260507033951 | 15 | 319 | 0.0 | 0.0 | 0.00 | 0.00 | 0.00 | 92 | 1013.3 |
| 20260507033449 | 15 | 319 | 0.0 | 0.0 | 0.00 | 0.00 | 0.00 | 91 | 1012.9 |
| 20260507032946 | 15 | 319 | 0.0 | 0.0 | 0.00 | 0.00 | 0.00 | 90 | 1012.9 |
| 20260507032443 | 15 | 319 | 0.0 | 0.0 | 0.00 | 0.00 | 0.00 | 89 | 1012.9 |
| 20260507031939 | 15 | 320 | 0.0 | 0.0 | 0.00 | 0.00 | 0.00 | 89 | 1012.9 |
| 20260507031435 | 15 | 319 | 0.0 | 0.0 | 0.00 | 0.00 | 0.00 | 88 | 1012.9 |
| 20260507030932 | 16 | 246 | 0.0 | 0.0 | 0.00 | 0.00 | 0.00 | 87 | 1012.6 |
| 20260507030429 | 16 | 242 | 0.0 | 0.0 | 0.00 | 0.00 | 0.00 | 87 | 1012.9 |
| 20260507025926 | 16 | 242 | 0.0 | 0.0 | 0.00 | 0.00 | 0.00 | 85 | 1012.6 |
| 20260507025423 | 16 | 242 | 1.6 | 1.6 | 0.00 | 0.00 | 0.00 | 85 | 1012.6 |
| 20260507024921 | 16 | 248 | 0.0 | 0.0 | 0.00 | 0.00 | 0.00 | 84 | 1012.6 |
| 20260507024419 | 16 | 249 | 0.0 | 0.0 | 0.00 | 0.00 | 0.00 | 83 | 1012.6 |
| 20260507023914 | 17 | 298 | 0.0 | 0.0 | 0.00 | 0.00 | 0.00 | 81 | 1012.6 |
| 20260507023411 | 17 | 229 | 0.0 | 0.0 | 0.00 | 0.00 | 0.00 | 81 | 1012.6 |
| 20260507022908 | 17 | 234 | 0.0 | 0.0 | 0.00 | 0.00 | 0.00 | 80 | 1012.6 |
| 20260507022405 | 17 | 211 | 0.0 | 0.0 | 0.00 | 0.00 | 0.00 | 79 | 1012.6 |
| 20260507021901 | 17 | 218 | 0.0 | 0.0 | 0.00 | 0.00 | 0.00 | 78 | 1012.6 |
| 20260507021356 | 17 | 230 | 0.0 | 0.0 | 0.00 | 0.00 | 0.00 | 77 | 1012.6 |
| 20260507020854 | 18 | 219 | 0.0 | 0.0 | 0.00 | 0.00 | 0.00 | 76 | 1012.6 |
| 20260507020351 | 18 | 224 | 0.0 | 0.0 | 0.00 | 0.00 | 0.00 | 75 | 1012.1 |
| 20260507015848 | 18 | 239 | 1.6 | 3.2 | 0.00 | 0.00 | 0.00 | 73 | 1012.1 |
| 20260507015346 | 18 | 233 | 1.6 | 3.2 | 0.00 | 0.00 | 0.00 | 73 | 1012.1 |
| 20260507014842 | 18 | 260 | 1.6 | 1.6 | 0.00 | 0.00 | 0.00 | 72 | 1012.1 |
| 20260507014339 | 18 | 224 | 0.0 | 0.0 | 0.00 | 0.00 | 0.00 | 72 | 1012.1 |
| 20260507013835 | 18 | 195 | 0.0 | 0.0 | 0.00 | 0.00 | 0.00 | 72 | 1012.1 |
| 20260507013332 | 18 | 244 | 0.0 | 0.0 | 0.00 | 0.00 | 0.00 | 71 | 1012.1 |
| 20260507012830 | 18 | 235 | 4.8 | 8.0 | 0.00 | 0.00 | 0.00 | 71 | 1012.1 |
| 20260507012326 | 18 | 246 | 3.2 | 4.8 | 0.00 | 0.00 | 0.00 | 71 | 1012.1 |
| 20260507011823 | 18 | 234 | 4.8 | 4.8 | 0.00 | 0.00 | 0.00 | 70 | 1012.1 |
| 20260507011320 | 18 | 236 | 4.8 | 8.0 | 0.00 | 0.00 | 0.00 | 69 | 1012.1 |
| 20260507010820 | 18 | 139 | 0.0 | 0.0 | 0.00 | 0.00 | 0.00 | 70 | 1012.6 |
| 20260507010315 | 18 | 231 | 1.6 | 3.2 | 0.00 | 0.00 | 0.00 | 69 | 1012.6 |
| 20260507005813 | 18 | 217 | 3.2 | 4.8 | 0.00 | 0.00 | 0.00 | 69 | 1012.1 |
| 20260507005310 | 19 | 282 | 4.8 | 8.0 | 0.00 | 0.00 | 0.00 | 68 | 1012.1 |
| 20260507004806 | 19 | 232 | 0.0 | 1.6 | 0.00 | 0.00 | 0.00 | 69 | 1012.1 |
| 20260507004304 | 19 | 322 | 0.0 | 0.0 | 0.00 | 0.00 | 0.00 | 69 | 1012.1 |
| 20260507003800 | 20 | 228 | 8.0 | 9.7 | 0.00 | 0.00 | 0.00 | 69 | 1012.6 |
| 20260507003255 | 20 | 202 | 1.6 | 3.2 | 0.00 | 0.00 | 0.00 | 68 | 1012.6 |
| 20260507002751 | 20 | 200 | 1.6 | 3.2 | 0.00 | 0.00 | 0.00 | 67 | 1012.1 |
| 20260507002247 | 20 | 142 | 0.0 | 0.0 | 0.00 | 0.00 | 0.00 | 68 | 1012.6 |
| 20260507001745 | 20 | 284 | 0.0 | 1.6 | 0.00 | 0.00 | 0.00 | 67 | 1012.1 |
| 20260507001242 | 20 | 289 | 0.0 | 0.0 | 0.00 | 0.00 | 0.00 | 68 | 1012.6 |
| 20260507000738 | 20 | 220 | 0.0 | 0.0 | 0.00 | 0.00 | 0.00 | 68 | 1012.6 |
| 20260507000234 | 21 | 236 | 3.2 | 4.8 | 0.00 | 0.00 | 0.00 | 65 | 1012.1 |
| 20260506235731 | 21 | 229 | 1.6 | 1.6 | 0.00 | 0.00 | 0.00 | 66 | 1012.6 |
| 20260506235226 | 21 | 247 | 3.2 | 3.2 | 0.00 | 0.00 | 0.00 | 65 | 1012.1 |
| 20260506234723 | 21 | 239 | 4.8 | 4.8 | 0.00 | 0.00 | 0.00 | 67 | 1012.1 |
| 20260506234221 | 22 | 231 | 4.8 | 4.8 | 0.00 | 0.00 | 0.00 | 64 | 1012.1 |
| 20260506233718 | 22 | 232 | 0.0 | 1.6 | 0.00 | 0.00 | 0.00 | 63 | 1012.1 |
| 20260506233214 | 21 | 227 | 0.0 | 1.6 | 0.00 | 0.00 | 0.00 | 64 | 1012.1 |
| 20260506232711 | 21 | 260 | 0.0 | 1.6 | 0.00 | 0.00 | 0.00 | 64 | 1012.1 |
| 20260506232206 | 21 | 330 | 0.0 | 1.6 | 0.00 | 0.00 | 0.00 | 63 | 1012.1 |
| 20260506231703 | 21 | 236 | 4.8 | 4.8 | 0.00 | 0.00 | 0.00 | 64 | 1012.1 |
| 20260506231202 | 22 | 236 | 1.6 | 3.2 | 0.00 | 0.00 | 0.00 | 64 | 1012.6 |
| 20260506230658 | 22 | 233 | 0.0 | 1.6 | 0.00 | 0.00 | 0.00 | 66 | 1012.6 |
| 20260506230155 | 22 | 227 | 3.2 | 4.8 | 0.00 | 0.00 | 0.00 | 67 | 1012.1 |
| 20260506225651 | 22 | 237 | 3.2 | 4.8 | 0.00 | 0.00 | 0.00 | 63 | 1012.6 |
| 20260506225149 | 22 | 262 | 4.8 | 4.8 | 0.00 | 0.00 | 0.00 | 64 | 1012.6 |
| 20260506224645 | 22 | 233 | 3.2 | 8.0 | 0.00 | 0.00 | 0.00 | 62 | 1012.6 |
| 20260506224141 | 22 | 93 | 1.6 | 3.2 | 0.00 | 0.00 | 0.00 | 62 | 1012.6 |
| 20260506223638 | 22 | 250 | 3.2 | 4.8 | 0.00 | 0.00 | 0.00 | 63 | 1012.6 |
| 20260506223134 | 22 | 228 | 4.8 | 4.8 | 0.00 | 0.00 | 0.00 | 64 | 1012.6 |
| 20260506222631 | 22 | 263 | 4.8 | 11.3 | 0.00 | 0.00 | 0.00 | 63 | 1012.9 |
| 20260506222127 | 22 | 237 | 1.6 | 1.6 | 0.00 | 0.00 | 0.00 | 64 | 1012.9 |
| 20260506221625 | 23 | 232 | 6.4 | 8.0 | 0.00 | 0.00 | 0.00 | 61 | 1012.9 |
| 20260506221123 | 22 | 205 | 1.6 | 3.2 | 0.00 | 0.00 | 0.00 | 61 | 1012.9 |
| 20260506220619 | 22 | 315 | 1.6 | 3.2 | 0.00 | 0.00 | 0.00 | 59 | 1012.9 |
| 20260506220114 | 22 | 215 | 1.6 | 3.2 | 0.00 | 0.00 | 0.00 | 60 | 1013.3 |
| 20260506215612 | 22 | 238 | 6.4 | 12.9 | 0.00 | 0.00 | 0.00 | 62 | 1013.3 |
| 20260506215107 | 23 | 243 | 1.6 | 3.2 | 0.00 | 0.00 | 0.00 | 59 | 1013.3 |
| 20260506214604 | 23 | 247 | 0.0 | 1.6 | 0.00 | 0.00 | 0.00 | 62 | 1013.3 |
| 20260506214101 | 23 | 213 | 6.4 | 9.7 | 0.00 | 0.00 | 0.00 | 61 | 1013.3 |
| 20260506213600 | 23 | 250 | 1.6 | 3.2 | 0.00 | 0.00 | 0.00 | 59 | 1013.3 |
| 20260506213056 | 23 | 231 | 0.0 | 1.6 | 0.00 | 0.00 | 0.00 | 62 | 1013.3 |
| 20260506212553 | 23 | 45 | 0.0 | 1.6 | 0.00 | 0.00 | 0.00 | 59 | 1013.3 |
| 20260506212048 | 22 | 222 | 0.0 | 1.6 | 0.00 | 0.00 | 0.00 | 59 | 1013.3 |
| 20260506211544 | 22 | 60 | 0.0 | 1.6 | 0.00 | 0.00 | 0.00 | 59 | 1013.3 |
| 20260506211042 | 23 | 241 | 3.2 | 4.8 | 0.00 | 0.00 | 0.00 | 60 | 1013.3 |
| 20260506210538 | 23 | 22 | 3.2 | 3.2 | 0.00 | 0.00 | 0.00 | 61 | 1013.3 |
| 20260506210035 | 23 | 203 | 4.8 | 8.0 | 0.00 | 0.00 | 0.00 | 62 | 1013.6 |
| 20260506205531 | 23 | 301 | 0.0 | 1.6 | 0.00 | 0.00 | 0.00 | 62 | 1013.3 |
| 20260506205027 | 23 | 238 | 1.6 | 3.2 | 0.00 | 0.00 | 0.00 | 61 | 1013.6 |
| 20260506204525 | 23 | 242 | 0.0 | 1.6 | 0.00 | 0.00 | 0.00 | 60 | 1013.6 |
| 20260506204021 | 23 | 290 | 1.6 | 3.2 | 0.00 | 0.00 | 0.00 | 60 | 1013.6 |
| 20260506203520 | 22 | 339 | 3.2 | 3.2 | 0.00 | 0.00 | 0.00 | 60 | 1013.6 |
| 20260506203016 | 22 | 243 | 3.2 | 3.2 | 0.00 | 0.00 | 0.00 | 61 | 1013.9 |
| 20260506202514 | 22 | 280 | 3.2 | 8.0 | 0.00 | 0.00 | 0.00 | 64 | 1013.6 |
| 20260506202009 | 22 | 245 | 6.4 | 9.7 | 0.00 | 0.00 | 0.00 | 60 | 1013.6 |
| 20260506201508 | 22 | 245 | 4.8 | 8.0 | 0.00 | 0.00 | 0.00 | 59 | 1013.9 |
| 20260506201004 | 22 | 350 | 3.2 | 4.8 | 0.00 | 0.00 | 0.00 | 60 | 1013.9 |
| 20260506200500 | 22 | 278 | 3.2 | 4.8 | 0.00 | 0.00 | 0.00 | 64 | 1013.9 |
| 20260506195956 | 22 | 217 | 1.6 | 3.2 | 0.00 | 0.00 | 0.00 | 63 | 1013.9 |
| 20260506195454 | 22 | 233 | 1.6 | 3.2 | 0.00 | 0.00 | 0.00 | 60 | 1013.9 |
| 20260506194950 | 22 | 210 | 11.3 | 16.1 | 0.00 | 0.00 | 0.00 | 62 | 1013.9 |
| 20260506194448 | 22 | 232 | 0.0 | 0.0 | 0.00 | 0.00 | 0.00 | 62 | 1013.9 |
| 20260506193944 | 22 | 238 | 3.2 | 4.8 | 0.00 | 0.00 | 0.00 | 58 | 1013.9 |
| 20260506193442 | 22 | 232 | 1.6 | 1.6 | 0.00 | 0.00 | 0.00 | 60 | 1013.9 |
| 20260506192938 | 22 | 216 | 0.0 | 1.6 | 0.00 | 0.00 | 0.00 | 61 | 1013.9 |
| 20260506192435 | 21 | 226 | 4.8 | 4.8 | 0.00 | 0.00 | 0.00 | 58 | 1013.9 |
| 20260506191932 | 21 | 243 | 1.6 | 3.2 | 0.00 | 0.00 | 0.00 | 57 | 1014.3 |
| 20260506191428 | 21 | 235 | 0.0 | 1.6 | 0.00 | 0.00 | 0.00 | 61 | 1014.3 |
| 20260506190925 | 21 | 231 | 4.8 | 8.0 | 0.00 | 0.00 | 0.00 | 63 | 1014.3 |
| 20260506190422 | 21 | 235 | 4.8 | 4.8 | 0.00 | 0.00 | 0.00 | 61 | 1014.3 |
| 20260506185918 | 20 | 237 | 3.2 | 4.8 | 0.00 | 0.00 | 0.00 | 60 | 1014.3 |
| 20260506185416 | 20 | 260 | 4.8 | 8.0 | 0.00 | 0.00 | 0.00 | 60 | 1014.3 |
| 20260506184913 | 21 | 229 | 6.4 | 8.0 | 0.00 | 0.00 | 0.00 | 63 | 1014.3 |
| 20260506184410 | 20 | 238 | 6.4 | 9.7 | 0.00 | 0.00 | 0.00 | 60 | 1014.6 |
| 20260506183907 | 20 | 236 | 6.4 | 9.7 | 0.00 | 0.00 | 0.00 | 62 | 1014.3 |
| 20260506183402 | 20 | 225 | 4.8 | 9.7 | 0.00 | 0.00 | 0.00 | 62 | 1014.3 |
| 20260506182900 | 20 | 232 | 6.4 | 8.0 | 0.00 | 0.00 | 0.00 | 64 | 1014.6 |
| 20260506182357 | 20 | 227 | 4.8 | 4.8 | 0.00 | 0.00 | 0.00 | 62 | 1014.6 |
| 20260506181854 | 20 | 297 | 1.6 | 4.8 | 0.00 | 0.00 | 0.00 | 64 | 1014.6 |
| 20260506181352 | 20 | 215 | 14.5 | 14.5 | 0.00 | 0.00 | 0.00 | 64 | 1014.6 |
| 20260506180849 | 20 | 224 | 3.2 | 4.8 | 0.00 | 0.00 | 0.00 | 61 | 1014.6 |
| 20260506180344 | 19 | 210 | 3.2 | 3.2 | 0.00 | 0.00 | 0.00 | 66 | 1014.6 |
| 20260506175841 | 19 | 219 | 0.0 | 1.6 | 0.00 | 0.00 | 0.00 | 67 | 1014.6 |
| 20260506175338 | 19 | 264 | 4.8 | 9.7 | 0.00 | 0.00 | 0.00 | 66 | 1014.6 |
| 20260506174835 | 19 | 230 | 3.2 | 4.8 | 0.00 | 0.00 | 0.00 | 66 | 1014.6 |
| 20260506174333 | 19 | 232 | 1.6 | 3.2 | 0.00 | 0.00 | 0.00 | 69 | 1014.6 |
| 20260506173830 | 19 | 224 | 3.2 | 4.8 | 0.00 | 0.00 | 0.00 | 67 | 1014.6 |
| 20260506173327 | 19 | 242 | 6.4 | 9.7 | 0.00 | 0.00 | 0.00 | 67 | 1014.6 |
| 20260506172824 | 19 | 212 | 6.4 | 9.7 | 0.00 | 0.00 | 0.00 | 67 | 1014.6 |
| 20260506172320 | 18 | 260 | 1.6 | 3.2 | 0.00 | 0.00 | 0.00 | 70 | 1014.6 |
| 20260506171818 | 18 | 222 | 8.0 | 11.3 | 0.00 | 0.00 | 0.00 | 66 | 1014.6 |
| 20260506171315 | 18 | 235 | 3.2 | 3.2 | 0.00 | 0.00 | 0.00 | 66 | 1014.6 |
| 20260506170813 | 18 | 248 | 3.2 | 4.8 | 0.00 | 0.00 | 0.00 | 64 | 1014.6 |
| 20260506170308 | 18 | 245 | 1.6 | 3.2 | 0.00 | 0.00 | 0.00 | 65 | 1014.6 |
| 20260506165808 | 18 | 225 | 3.2 | 4.8 | 0.00 | 0.00 | 0.00 | 64 | 1014.6 |
| 20260506165305 | 17 | 208 | 3.2 | 3.2 | 0.00 | 0.00 | 0.00 | 68 | 1014.6 |
| 20260506164801 | 17 | 239 | 3.2 | 4.8 | 0.00 | 0.00 | 0.00 | 69 | 1014.6 |
| 20260506164258 | 17 | 263 | 3.2 | 3.2 | 0.00 | 0.00 | 0.00 | 66 | 1014.6 |
| 20260506163755 | 17 | 236 | 1.6 | 3.2 | 0.00 | 0.00 | 0.00 | 70 | 1014.6 |
| 20260506163250 | 17 | 212 | 4.8 | 4.8 | 0.00 | 0.00 | 0.00 | 68 | 1014.6 |
| 20260506162746 | 17 | 293 | 1.6 | 1.6 | 0.00 | 0.00 | 0.00 | 66 | 1014.6 |
| 20260506162244 | 16 | 218 | 1.6 | 3.2 | 0.00 | 0.00 | 0.00 | 70 | 1014.6 |
| 20260506161741 | 16 | 223 | 1.6 | 3.2 | 0.00 | 0.00 | 0.00 | 70 | 1014.6 |
| 20260506161238 | 16 | 238 | 3.2 | 4.8 | 0.00 | 0.00 | 0.00 | 73 | 1014.6 |
| 20260506160736 | 16 | 236 | 4.8 | 4.8 | 0.00 | 0.00 | 0.00 | 73 | 1014.6 |
| 20260506160232 | 16 | 222 | 1.6 | 1.6 | 0.00 | 0.00 | 0.00 | 73 | 1014.6 |
| 20260506155731 | 16 | 188 | 0.0 | 0.0 | 0.00 | 0.00 | 0.00 | 72 | 1014.6 |
| 20260506155227 | 16 | 236 | 1.6 | 1.6 | 0.00 | 0.00 | 0.00 | 77 | 1014.3 |
| 20260506153329 | 16 | 264 | 3.2 | 3.2 | 0.00 | 0.00 | 0.00 | 76 | 1014.6 |
| 20260506152826 | 16 | 218 | 0.0 | 1.6 | 0.00 | 0.00 | 0.00 | 75 | 1014.6 |
| 20260506152323 | 15 | 257 | 0.0 | 1.6 | 0.00 | 0.00 | 0.00 | 74 | 1014.6 |
| 20260506151822 | 15 | 219 | 3.2 | 4.8 | 0.00 | 0.00 | 0.00 | 76 | 1014.6 |
| 20260506151318 | 15 | 199 | 1.6 | 3.2 | 0.00 | 0.00 | 0.00 | 75 | 1014.6 |
| 20260506150815 | 15 | 192 | 0.0 | 0.0 | 0.00 | 0.00 | 0.00 | 74 | 1014.6 |
| 20260506150312 | 15 | 168 | 0.0 | 1.6 | 0.00 | 0.00 | 0.00 | 78 | 1014.6 |
| 20260506145809 | 14 | 165 | 0.0 | 0.0 | 0.00 | 0.00 | 0.00 | 78 | 1014.6 |
| 20260506145306 | 13 | 194 | 0.0 | 1.6 | 0.00 | 0.00 | 0.00 | 79 | 1014.6 |
| 20260506144803 | 13 | 158 | 0.0 | 0.0 | 0.00 | 0.00 | 0.00 | 81 | 1014.6 |
| 20260506144259 | 13 | 130 | 0.0 | 1.6 | 0.00 | 0.00 | 0.00 | 83 | 1014.6 |
| 20260506143757 | 12 | 100 | 0.0 | 1.6 | 0.00 | 0.00 | 0.00 | 83 | 1014.6 |
| 20260506143254 | 12 | 122 | 1.6 | 3.2 | 0.00 | 0.00 | 0.00 | 83 | 1014.6 |
| 20260506142752 | 12 | 103 | 0.0 | 1.6 | 0.00 | 0.00 | 0.00 | 85 | 1014.6 |
| 20260506142250 | 11 | 91 | 0.0 | 0.0 | 0.00 | 0.00 | 0.00 | 86 | 1014.6 |
| 20260506141748 | 11 | 77 | 1.6 | 1.6 | 0.00 | 0.00 | 0.00 | 87 | 1014.6 |
| 20260506141246 | 11 | 62 | 1.6 | 3.2 | 0.00 | 0.00 | 0.00 | 88 | 1014.6 |
| 20260506140743 | 10 | 49 | 3.2 | 3.2 | 0.00 | 0.00 | 0.00 | 90 | 1014.3 |
| 20260506140240 | 10 | 95 | 0.0 | 1.6 | 0.00 | 0.00 | 0.00 | 91 | 1014.3 |
| 20260506135737 | 10 | 55 | 0.0 | 1.6 | 0.00 | 0.00 | 0.00 | 90 | 1014.3 |
| 20260506135233 | 10 | 54 | 0.0 | 0.0 | 0.00 | 0.00 | 0.00 | 92 | 1014.3 |
| 20260506134730 | 9 | 54 | 0.0 | 0.0 | 0.00 | 0.00 | 0.00 | 92 | 1014.3 |
| 20260506134227 | 9 | 49 | 1.6 | 3.2 | 0.00 | 0.00 | 0.00 | 93 | 1014.3 |
| 20260506133724 | 8 | 83 | 0.0 | 0.0 | 0.00 | 0.00 | 0.00 | 94 | 1014.3 |
| 20260506133220 | 8 | 34 | 3.2 | 4.8 | 0.00 | 0.00 | 0.00 | 95 | 1014.3 |
| 20260506132718 | 8 | 81 | 1.6 | 1.6 | 0.00 | 0.00 | 0.00 | 96 | 1014.3 |
| 20260506132214 | 9 | 62 | 0.0 | 0.0 | 0.00 | 0.00 | 0.00 | 98 | 1014.3 |
| 20260506131713 | 9 | 51 | 0.0 | 1.6 | 0.00 | 0.00 | 0.00 | 97 | 1014.3 |
| 20260506131208 | 9 | 23 | 1.6 | 1.6 | 0.00 | 0.00 | 0.00 | 96 | 1014.3 |
| 20260506130705 | 9 | 22 | 0.0 | 0.0 | 0.00 | 0.00 | 0.00 | 96 | 1013.9 |
| 20260506130202 | 9 | 44 | 3.2 | 3.2 | 0.00 | 0.00 | 0.00 | 93 | 1014.3 |
| 20260506125700 | 9 | 21 | 1.6 | 3.2 | 0.00 | 0.00 | 0.00 | 94 | 1013.9 |
| 20260506125158 | 9 | 17 | 1.6 | 3.2 | 0.00 | 0.00 | 0.00 | 94 | 1013.9 |
| 20260506124655 | 9 | 26 | 1.6 | 3.2 | 0.00 | 0.00 | 0.00 | 95 | 1013.9 |
| 20260506124153 | 9 | 30 | 3.2 | 3.2 | 0.00 | 0.00 | 0.00 | 95 | 1013.6 |
| 20260506123651 | 10 | 27 | 3.2 | 3.2 | 0.00 | 0.00 | 0.00 | 94 | 1013.6 |
| 20260506123149 | 10 | 42 | 1.6 | 3.2 | 0.00 | 0.00 | 0.00 | 94 | 1013.6 |
| 20260506122646 | 10 | 35 | 3.2 | 3.2 | 0.00 | 0.00 | 0.00 | 94 | 1013.6 |
| 20260506122143 | 10 | 34 | 4.8 | 4.8 | 0.00 | 0.00 | 0.00 | 94 | 1013.6 |
| 20260506121641 | 10 | 35 | 6.4 | 8.0 | 0.00 | 0.00 | 0.00 | 95 | 1013.6 |
| 20260506121137 | 10 | 43 | 3.2 | 4.8 | 0.00 | 0.00 | 0.00 | 93 | 1013.6 |
| 20260506120635 | 10 | 33 | 4.8 | 4.8 | 0.00 | 0.00 | 0.00 | 93 | 1013.6 |
| 20260506120132 | 10 | 30 | 4.8 | 4.8 | 0.00 | 0.00 | 0.00 | 93 | 1013.6 |
| 20260506115631 | 10 | 12 | 0.0 | 1.6 | 0.00 | 0.00 | 0.00 | 93 | 1013.6 |
| 20260506115128 | 10 | 32 | 1.6 | 3.2 | 0.00 | 0.00 | 0.00 | 93 | 1013.6 |
| 20260506114625 | 10 | 29 | 1.6 | 1.6 | 0.00 | 0.00 | 0.00 | 93 | 1013.6 |
| 20260506114123 | 10 | 31 | 1.6 | 1.6 | 0.00 | 0.00 | 0.00 | 93 | 1013.6 |
| 20260506113621 | 9 | 14 | 1.6 | 1.6 | 0.00 | 0.00 | 0.00 | 94 | 1013.6 |
| 20260506113118 | 9 | 30 | 1.6 | 3.2 | 0.00 | 0.00 | 0.00 | 94 | 1013.6 |
| 20260506112614 | 9 | 31 | 4.8 | 4.8 | 0.00 | 0.00 | 0.00 | 94 | 1013.6 |
| 20260506112112 | 9 | 26 | 0.0 | 0.0 | 0.00 | 0.00 | 0.00 | 95 | 1013.3 |
| 20260506111610 | 9 | 316 | 0.0 | 0.0 | 0.00 | 0.00 | 0.00 | 97 | 1013.3 |
| 20260506111107 | 9 | 317 | 0.0 | 0.0 | 0.00 | 0.00 | 0.00 | 96 | 1013.6 |
| 20260506110605 | 9 | 311 | 0.0 | 0.0 | 0.00 | 0.00 | 0.00 | 96 | 1013.3 |
| 20260506105558 | 9 | 325 | 0.0 | 0.0 | 0.00 | 0.00 | 0.00 | 96 | 1013.3 |
| 20260506105055 | 9 | 6 | 0.0 | 1.6 | 0.00 | 0.00 | 0.00 | 96 | 1013.6 |
| 20260506104553 | 9 | 44 | 6.4 | 8.0 | 0.00 | 0.00 | 0.00 | 95 | 1013.6 |
| 20260506104051 | 10 | 34 | 1.6 | 1.6 | 0.00 | 0.00 | 0.00 | 95 | 1013.3 |
| 20260506103548 | 10 | 24 | 1.6 | 4.8 | 0.00 | 0.00 | 0.00 | 96 | 1013.3 |
| 20260506103044 | 10 | 51 | 0.0 | 0.0 | 0.00 | 0.00 | 0.00 | 96 | 1013.3 |
| 20260506102543 | 10 | 47 | 0.0 | 1.6 | 0.00 | 0.00 | 0.00 | 95 | 1013.3 |
| 20260506102040 | 10 | 50 | 1.6 | 1.6 | 0.00 | 0.00 | 0.00 | 94 | 1013.3 |
| 20260506101536 | 10 | 46 | 4.8 | 4.8 | 0.00 | 0.00 | 0.00 | 94 | 1013.3 |
| 20260506101033 | 10 | 44 | 4.8 | 8.0 | 0.00 | 0.00 | 0.00 | 94 | 1013.3 |
| 20260506100532 | 10 | 34 | 3.2 | 4.8 | 0.00 | 0.00 | 0.00 | 93 | 1013.6 |
| 20260506100030 | 10 | 35 | 4.8 | 4.8 | 0.00 | 0.00 | 0.00 | 93 | 1013.6 |
| 20260506095528 | 10 | 30 | 4.8 | 4.8 | 0.00 | 0.00 | 0.00 | 95 | 1013.6 |
| 20260506095024 | 10 | 32 | 3.2 | 3.2 | 0.00 | 0.00 | 0.00 | 95 | 1013.6 |
| 20260506094522 | 10 | 22 | 1.6 | 3.2 | 0.00 | 0.00 | 0.00 | 96 | 1013.6 |
| 20260506094020 | 10 | 11 | 3.2 | 3.2 | 0.00 | 0.00 | 0.00 | 96 | 1013.6 |
| 20260506093518 | 10 | 25 | 3.2 | 4.8 | 0.00 | 0.00 | 0.00 | 96 | 1013.6 |
| 20260506093015 | 10 | 15 | 0.0 | 1.6 | 0.00 | 0.00 | 0.00 | 96 | 1013.6 |
| 20260506092513 | 10 | 22 | 1.6 | 1.6 | 0.00 | 0.00 | 0.00 | 95 | 1013.9 |
| 20260506092009 | 10 | 41 | 4.8 | 8.0 | 0.00 | 0.00 | 0.00 | 96 | 1013.9 |
| 20260506091508 | 10 | 35 | 3.2 | 3.2 | 0.00 | 0.00 | 0.00 | 96 | 1013.9 |
| 20260506091004 | 10 | 51 | 3.2 | 3.2 | 0.00 | 0.00 | 0.00 | 96 | 1013.9 |
| 20260506090502 | 10 | 51 | 4.8 | 4.8 | 0.00 | 0.00 | 0.00 | 96 | 1013.9 |
| 20260506085958 | 10 | 21 | 1.6 | 3.2 | 0.00 | 0.00 | 0.00 | 96 | 1013.9 |